Time;durP1;ratioP1;P1;durP2;ratioP2;P2;SDS_P1;SDS_P2;PMS_P1;PMS_P2;Temp;Humidity;BMP_temperature;BMP_pressure;BME280_temperature;BME280_humidity;BME280_pressure;Samples;Min_cycle;Max_cycle;Signal;HPM_P1;HPM_P2
2023/01/21 00:00:26;;;;;;;;;;;2.90;99.90;;;;;;5094605;28;20011;-72
2023/01/21 00:02:51;;;;;;;;;;;2.90;99.90;;;;;;5096356;28;19927;-73
2023/01/21 00:05:17;;;;;;;;;;;3.10;99.90;;;;;;5096217;28;19908;-72
2023/01/21 00:07:42;;;;;;;;;;;2.90;99.90;;;;;;5094638;28;19961;-71
2023/01/21 00:10:08;;;;;;;;;;;2.90;99.90;;;;;;5094904;28;20394;-72
2023/01/21 00:12:33;;;;;;;;;;;2.80;99.90;;;;;;5095096;28;19908;-72
2023/01/21 00:14:59;;;;;;;;;;;2.70;99.90;;;;;;5094400;28;19916;-72
2023/01/21 00:17:24;;;;;;;;;;;2.60;99.90;;;;;;5097508;28;19982;-70
2023/01/21 00:19:50;;;;;;;;;;;2.50;99.90;;;;;;5096082;28;19908;-72
2023/01/21 00:22:15;;;;;;;;;;;2.50;99.90;;;;;;5095238;28;19962;-71
2023/01/21 00:24:40;;;;;;;;;;;2.50;99.90;;;;;;5098326;28;19962;-71
2023/01/21 00:27:06;;;;;;;;;;;2.40;99.90;;;;;;5098668;28;19912;-72
2023/01/21 00:29:31;;;;;;;;;;;2.40;99.90;;;;;;5098115;28;19962;-71
2023/01/21 00:31:57;;;;;;;;;;;2.40;99.90;;;;;;5096496;28;19998;-73
2023/01/21 00:34:22;;;;;;;;;;;2.30;99.90;;;;;;5095350;28;20296;-72
2023/01/21 00:36:48;;;;;;;;;;;2.40;99.90;;;;;;5095622;28;19931;-72
2023/01/21 00:39:13;;;;;;;;;;;2.40;99.90;;;;;;5094394;28;19908;-71
2023/01/21 00:41:38;;;;;;;;;;;2.50;99.90;;;;;;5095475;28;19915;-72
2023/01/21 00:44:04;;;;;;;;;;;2.50;99.90;;;;;;5095002;28;19912;-72
2023/01/21 00:46:30;;;;;;;;;;;2.60;99.90;;;;;;5096237;28;19909;-73
2023/01/21 00:48:55;;;;;;;;;;;2.60;99.90;;;;;;5095424;28;19908;-72
2023/01/21 00:51:21;;;;;;;;;;;2.50;99.90;;;;;;5106625;28;19908;-72
2023/01/21 00:53:47;;;;;;;;;;;2.50;99.90;;;;;;5104925;28;19979;-71
2023/01/21 00:56:12;;;;;;;;;;;2.50;99.90;;;;;;5095458;28;19912;-71
2023/01/21 00:58:37;;;;;;;;;;;2.50;99.90;;;;;;5093631;28;19947;-72
2023/01/21 01:01:04;;;;;;;;;;;2.50;99.90;;;;;;5095188;28;19908;-71
2023/01/21 01:03:30;;;;;;;;;;;2.50;99.90;;;;;;5095118;28;20414;-72
2023/01/21 01:06:00;;;;;;;;;;;2.40;99.90;;;;;;5094325;28;19908;-72
2023/01/21 01:08:25;;;;;;;;;;;2.50;99.90;;;;;;5094103;28;19956;-72
2023/01/21 01:10:52;;;;;;;;;;;2.50;99.90;;;;;;5093863;28;19999;-71
2023/01/21 01:13:18;;;;;;;;;;;2.40;99.90;;;;;;5094719;28;19908;-71
2023/01/21 01:15:43;;;;;;;;;;;2.40;99.90;;;;;;5094610;28;19916;-71
2023/01/21 01:18:09;;;;;;;;;;;2.40;99.90;;;;;;5095184;28;19909;-71
2023/01/21 01:20:34;;;;;;;;;;;2.40;99.90;;;;;;5093551;28;19911;-71
2023/01/21 01:23:00;;;;;;;;;;;2.50;99.90;;;;;;5093795;28;19908;-71
2023/01/21 01:25:25;;;;;;;;;;;2.40;99.90;;;;;;5094652;28;19961;-71
2023/01/21 01:27:50;;;;;;;;;;;2.30;99.90;;;;;;5093029;28;19908;-71
2023/01/21 01:30:16;;;;;;;;;;;2.40;99.90;;;;;;5094472;28;19912;-72
2023/01/21 01:32:42;;;;;;;;;;;2.20;99.90;;;;;;5095154;28;19995;-72
2023/01/21 01:35:07;;;;;;;;;;;2.20;99.90;;;;;;5094643;28;19918;-72
2023/01/21 01:37:33;;;;;;;;;;;2.20;99.90;;;;;;5092815;28;19990;-72
2023/01/21 01:39:59;;;;;;;;;;;2.30;99.90;;;;;;5094516;28;19934;-71
2023/01/21 01:42:24;;;;;;;;;;;2.30;99.90;;;;;;5092816;28;20384;-70
2023/01/21 01:44:58;;;;;;;;;;;2.30;99.90;;;;;;5093163;28;19908;-71
2023/01/21 01:47:29;;;;;;;;;;;2.20;99.90;;;;;;5093882;28;19931;-71
2023/01/21 01:49:55;;;;;;;;;;;2.10;99.90;;;;;;5094772;28;19919;-71
2023/01/21 01:52:21;;;;;;;;;;;2.10;99.90;;;;;;5094623;28;19908;-71
2023/01/21 01:54:48;;;;;;;;;;;2.00;99.90;;;;;;5094996;28;19973;-72
2023/01/21 01:57:16;;;;;;;;;;;2.00;99.90;;;;;;5095868;28;20325;-72
2023/01/21 01:59:42;;;;;;;;;;;2.00;99.90;;;;;;5094886;28;19912;-71
2023/01/21 02:02:10;;;;;;;;;;;2.10;99.90;;;;;;5094775;28;19916;-72
2023/01/21 02:04:39;;;;;;;;;;;2.10;99.90;;;;;;5093054;28;19962;-72
2023/01/21 02:07:04;;;;;;;;;;;2.10;99.90;;;;;;5096052;28;19912;-71
2023/01/21 02:09:29;;;;;;;;;;;2.00;99.90;;;;;;5101409;28;19961;-72
2023/01/21 02:11:56;;;;;;;;;;;2.10;99.90;;;;;;5099991;28;20280;-72
2023/01/21 02:14:22;;;;;;;;;;;2.00;99.90;;;;;;5098096;28;19917;-72
2023/01/21 02:16:50;;;;;;;;;;;2.00;99.90;;;;;;5097031;28;19912;-71
2023/01/21 02:19:25;;;;;;;;;;;1.90;99.90;;;;;;5092862;28;20014;-71
2023/01/21 02:21:50;;;;;;;;;;;1.80;99.90;;;;;;5092927;28;19915;-71
2023/01/21 02:24:16;;;;;;;;;;;1.80;99.90;;;;;;5093046;28;19912;-72
2023/01/21 02:26:53;;;;;;;;;;;1.80;99.90;;;;;;5095023;28;19935;-71
2023/01/21 02:29:51;;;;;;;;;;;1.70;99.90;;;;;;5094393;28;19909;-71
2023/01/21 02:32:20;;;;;;;;;;;1.70;99.90;;;;;;5038487;28;19915;-71
2023/01/21 02:34:51;;;;;;;;;;;1.60;99.90;;;;;;5092746;28;19963;-72
2023/01/21 02:37:23;;;;;;;;;;;1.50;99.90;;;;;;5095751;28;19908;-72
2023/01/21 02:39:54;;;;;;;;;;;1.50;99.90;;;;;;5098816;28;20356;-70
2023/01/21 02:42:38;;;;;;;;;;;1.40;99.90;;;;;;5098018;28;19987;-73
2023/01/21 02:45:23;;;;;;;;;;;1.40;99.90;;;;;;5096813;28;19930;-71
2023/01/21 02:47:55;;;;;;;;;;;1.40;99.90;;;;;;5096442;28;20011;-71
2023/01/21 02:50:26;;;;;;;;;;;1.40;99.90;;;;;;5097914;28;19915;-71
2023/01/21 02:52:59;;;;;;;;;;;1.40;99.90;;;;;;5096483;28;19927;-72
2023/01/21 02:55:50;;;;;;;;;;;1.30;99.90;;;;;;5097753;28;19923;-72
2023/01/21 02:58:18;;;;;;;;;;;1.20;99.90;;;;;;5093033;28;19908;-72
2023/01/21 03:00:55;;;;;;;;;;;1.20;99.90;;;;;;5097424;28;19961;-71
2023/01/21 03:03:40;;;;;;;;;;;1.10;99.90;;;;;;5097851;28;19908;-72
2023/01/21 03:06:06;;;;;;;;;;;1.10;99.90;;;;;;5095160;28;19908;-71
2023/01/21 03:08:35;;;;;;;;;;;1.10;99.90;;;;;;5097328;28;19969;-72
2023/01/21 03:11:06;;;;;;;;;;;1.10;99.90;;;;;;5097117;28;19931;-72
2023/01/21 03:19:11;;;;;;;;;;;1.00;99.90;;;;;;5097178;28;19915;-72
2023/01/21 03:21:37;;;;;;;;;;;0.90;99.90;;;;;;5095651;28;19954;-72
2023/01/21 03:24:03;;;;;;;;;;;0.90;99.90;;;;;;5095498;28;20315;-71
2023/01/21 03:26:34;;;;;;;;;;;0.80;99.90;;;;;;5096851;28;19908;-71
2023/01/21 03:29:04;;;;;;;;;;;0.70;99.90;;;;;;5109688;28;19908;-71
2023/01/21 03:31:31;;;;;;;;;;;0.70;99.90;;;;;;5106193;28;19962;-72
2023/01/21 03:33:59;;;;;;;;;;;0.60;99.90;;;;;;5099158;28;20013;-72
2023/01/21 03:36:33;;;;;;;;;;;0.60;99.90;;;;;;5099306;28;19935;-72
2023/01/21 03:39:00;;;;;;;;;;;0.60;99.90;;;;;;5099165;28;19974;-72
2023/01/21 03:41:32;;;;;;;;;;;0.50;99.90;;;;;;5098794;28;19919;-72
2023/01/21 03:43:58;;;;;;;;;;;0.40;99.90;;;;;;5096788;28;19947;-71
2023/01/21 03:46:36;;;;;;;;;;;0.40;99.90;;;;;;5095720;28;19908;-71
2023/01/21 03:49:14;;;;;;;;;;;0.40;99.90;;;;;;5096653;28;20414;-72
2023/01/21 03:51:43;;;;;;;;;;;0.40;99.90;;;;;;5096156;28;19978;-71
2023/01/21 03:54:08;;;;;;;;;;;0.40;99.90;;;;;;5096493;28;20002;-72
2023/01/21 03:56:34;;;;;;;;;;;0.40;99.90;;;;;;5095420;28;20436;-71
2023/01/21 03:58:59;;;;;;;;;;;0.30;99.90;;;;;;5095604;28;19912;-72
2023/01/21 04:01:25;;;;;;;;;;;0.30;99.90;;;;;;5096733;28;19957;-71
2023/01/21 04:03:50;;;;;;;;;;;0.30;99.90;;;;;;5096677;28;19908;-70
2023/01/21 04:06:17;;;;;;;;;;;0.30;99.90;;;;;;5094902;28;19909;-71
2023/01/21 04:08:42;;;;;;;;;;;0.20;99.90;;;;;;5095101;28;20302;-71
2023/01/21 04:11:08;;;;;;;;;;;0.20;99.90;;;;;;5096537;28;20006;-71
2023/01/21 04:13:33;;;;;;;;;;;0.10;99.90;;;;;;5094857;28;19912;-71
2023/01/21 04:15:59;;;;;;;;;;;0.10;99.90;;;;;;5096307;28;19916;-72
2023/01/21 04:18:24;;;;;;;;;;;0.10;99.90;;;;;;5098684;28;19930;-71
2023/01/21 04:20:50;;;;;;;;;;;0.10;99.90;;;;;;5102938;28;19916;-72
2023/01/21 04:23:15;;;;;;;;;;;0.10;99.90;;;;;;5103139;28;19929;-71
2023/01/21 04:25:41;;;;;;;;;;;0.10;99.90;;;;;;5100093;28;20360;-71
2023/01/21 04:28:06;;;;;;;;;;;0.00;99.90;;;;;;5101320;28;19938;-72
2023/01/21 04:30:32;;;;;;;;;;;0.00;99.90;;;;;;5099410;28;19914;-72
2023/01/21 04:32:57;;;;;;;;;;;0.00;99.90;;;;;;5100145;28;20349;-71
2023/01/21 04:35:23;;;;;;;;;;;0.00;99.90;;;;;;5103279;28;19912;-72
2023/01/21 04:37:48;;;;;;;;;;;0.00;99.90;;;;;;5109174;28;20340;-72
2023/01/21 04:40:14;;;;;;;;;;;0.00;99.90;;;;;;5106714;28;19908;-72
2023/01/21 04:42:40;;;;;;;;;;;0.00;99.90;;;;;;5097239;28;19957;-71
2023/01/21 04:45:06;;;;;;;;;;;0.10;99.90;;;;;;5106348;28;19957;-73
2023/01/21 04:47:32;;;;;;;;;;;0.10;99.90;;;;;;5111206;28;19909;-72
2023/01/21 04:49:57;;;;;;;;;;;0.20;99.90;;;;;;5116171;28;19908;-72
2023/01/21 04:52:23;;;;;;;;;;;0.20;99.90;;;;;;5115174;28;19908;-72
2023/01/21 04:54:48;;;;;;;;;;;0.30;99.90;;;;;;5115246;28;19912;-72
2023/01/21 04:57:14;;;;;;;;;;;0.40;99.90;;;;;;5114798;28;19923;-71
2023/01/21 04:59:39;;;;;;;;;;;0.50;99.90;;;;;;5116906;28;19908;-72
2023/01/21 05:02:04;;;;;;;;;;;0.50;99.90;;;;;;5115165;28;20368;-72
2023/01/21 05:04:31;;;;;;;;;;;0.50;99.90;;;;;;5101483;28;19908;-71
2023/01/21 05:06:57;;;;;;;;;;;0.50;99.90;;;;;;5106606;28;19908;-71
2023/01/21 05:09:22;;;;;;;;;;;0.50;99.90;;;;;;5105683;28;19909;-71
2023/01/21 05:11:48;;;;;;;;;;;0.50;99.90;;;;;;5106174;28;19908;-72
2023/01/21 05:14:13;;;;;;;;;;;0.30;99.90;;;;;;5100715;28;19962;-71
2023/01/21 05:16:39;;;;;;;;;;;0.30;99.90;;;;;;5097532;28;19912;-72
2023/01/21 05:19:04;;;;;;;;;;;0.20;99.90;;;;;;5095026;28;20344;-71
2023/01/21 05:21:30;;;;;;;;;;;0.10;99.90;;;;;;5095840;28;19908;-71
2023/01/21 05:23:55;;;;;;;;;;;0.10;99.90;;;;;;5093838;28;19912;-71
2023/01/21 05:26:21;;;;;;;;;;;0.10;99.90;;;;;;5096228;28;19908;-71
2023/01/21 05:28:46;;;;;;;;;;;0.00;99.90;;;;;;5095348;28;19994;-72
2023/01/21 05:31:12;;;;;;;;;;;0.00;99.90;;;;;;5093982;28;20365;-72
2023/01/21 05:33:37;;;;;;;;;;;0.00;99.90;;;;;;5095895;28;20424;-72
2023/01/21 05:36:03;;;;;;;;;;;0.00;99.90;;;;;;5093820;28;19912;-72
2023/01/21 05:38:29;;;;;;;;;;;0.00;99.90;;;;;;5093926;28;19908;-72
2023/01/21 05:40:55;;;;;;;;;;;-0.10;99.90;;;;;;5089180;28;20042;-72
2023/01/21 05:43:21;;;;;;;;;;;-0.10;99.90;;;;;;5083209;28;19999;-72
2023/01/21 05:45:48;;;;;;;;;;;-0.20;99.90;;;;;;5076866;28;20450;-72
2023/01/21 05:48:14;;;;;;;;;;;-0.20;99.90;;;;;;5076362;28;20296;-71
2023/01/21 05:50:39;;;;;;;;;;;-0.20;99.90;;;;;;5074757;28;19980;-72
2023/01/21 05:53:05;;;;;;;;;;;-0.20;99.90;;;;;;5073578;28;19995;-72
2023/01/21 05:55:30;;;;;;;;;;;-0.30;99.90;;;;;;5095379;28;20013;-72
2023/01/21 05:57:56;;;;;;;;;;;-0.40;99.90;;;;;;5095537;28;19908;-72
2023/01/21 06:00:21;;;;;;;;;;;-0.50;99.90;;;;;;5095174;28;20003;-71
2023/01/21 06:02:47;;;;;;;;;;;-0.60;99.90;;;;;;5094656;28;19954;-72
2023/01/21 06:05:12;;;;;;;;;;;-0.70;99.90;;;;;;5093265;28;19962;-73
2023/01/21 06:07:38;;;;;;;;;;;-0.70;99.90;;;;;;5094106;28;19934;-72
2023/01/21 06:10:03;;;;;;;;;;;-0.80;99.90;;;;;;5099934;28;20006;-72
2023/01/21 06:12:29;;;;;;;;;;;-0.90;99.90;;;;;;5101081;28;19908;-72
2023/01/21 06:14:55;;;;;;;;;;;-1.00;99.90;;;;;;5101864;28;19920;-72
2023/01/21 06:17:20;;;;;;;;;;;-1.10;99.90;;;;;;5097481;28;19908;-72
2023/01/21 06:19:45;;;;;;;;;;;-1.10;99.90;;;;;;5095329;28;19934;-72
2023/01/21 06:22:15;;;;;;;;;;;-1.20;99.90;;;;;;5093022;28;19915;-71
2023/01/21 06:24:40;;;;;;;;;;;-1.20;99.90;;;;;;5094905;28;19930;-72
2023/01/21 06:27:05;;;;;;;;;;;-1.20;99.90;;;;;;5094603;28;19908;-71
2023/01/21 06:29:31;;;;;;;;;;;-1.30;99.90;;;;;;5094429;28;19962;-72
2023/01/21 06:31:56;;;;;;;;;;;-1.30;99.90;;;;;;5094209;28;19961;-71
2023/01/21 06:34:22;;;;;;;;;;;-1.40;99.90;;;;;;5092687;28;19943;-71
2023/01/21 06:36:47;;;;;;;;;;;-1.50;99.90;;;;;;5095150;28;19916;-71
2023/01/21 06:39:13;;;;;;;;;;;-1.40;99.90;;;;;;5094355;28;19907;-71
2023/01/21 06:41:38;;;;;;;;;;;-1.50;99.90;;;;;;5094085;28;19966;-72
2023/01/21 06:44:04;;;;;;;;;;;-1.50;99.90;;;;;;5092735;28;19908;-72
2023/01/21 06:46:29;;;;;;;;;;;-1.50;99.90;;;;;;5092635;28;20322;-72
2023/01/21 06:48:55;;;;;;;;;;;-1.50;99.90;;;;;;5094158;28;19918;-70
2023/01/21 06:51:20;;;;;;;;;;;-1.50;99.90;;;;;;5093912;28;19914;-71
2023/01/21 06:53:46;;;;;;;;;;;-1.40;99.90;;;;;;5092448;28;19909;-71
2023/01/21 06:56:11;;;;;;;;;;;-1.30;99.90;;;;;;5094071;28;19912;-71
2023/01/21 06:58:36;;;;;;;;;;;-1.20;99.90;;;;;;5093339;28;20440;-71
2023/01/21 07:01:02;;;;;;;;;;;-1.20;99.90;;;;;;5090919;28;20711;-71
2023/01/21 07:03:28;;;;;;;;;;;-1.10;99.90;;;;;;5073922;28;20253;-71
2023/01/21 07:05:54;;;;;;;;;;;-1.10;99.90;;;;;;5074178;28;19908;-72
2023/01/21 07:08:19;;;;;;;;;;;-1.10;99.90;;;;;;5074209;28;19928;-71
2023/01/21 07:10:45;;;;;;;;;;;-1.10;99.90;;;;;;5080215;28;19920;-70
2023/01/21 07:13:10;;;;;;;;;;;-1.00;99.90;;;;;;5074293;28;19966;-71
2023/01/21 07:15:36;;;;;;;;;;;-0.90;99.90;;;;;;5075090;28;19920;-71
2023/01/21 07:18:01;;;;;;;;;;;-0.90;99.90;;;;;;5072735;28;19908;-72
2023/01/21 07:20:27;;;;;;;;;;;-0.90;99.90;;;;;;5073970;28;19908;-72
2023/01/21 07:22:52;;;;;;;;;;;-0.80;99.90;;;;;;5073228;28;19915;-72
2023/01/21 07:25:18;;;;;;;;;;;-0.80;99.90;;;;;;5091164;28;20007;-71
2023/01/21 07:27:43;;;;;;;;;;;-0.80;99.90;;;;;;5092545;28;20015;-72
2023/01/21 07:30:14;;;;;;;;;;;-0.70;99.90;;;;;;5093550;28;20013;-71
2023/01/21 07:32:39;;;;;;;;;;;-0.70;99.90;;;;;;5094072;28;19914;-71
2023/01/21 07:35:05;;;;;;;;;;;-0.60;99.90;;;;;;5096341;28;20361;-73
2023/01/21 07:37:31;;;;;;;;;;;-0.60;99.90;;;;;;5098102;28;19915;-72
2023/01/21 07:39:56;;;;;;;;;;;-0.70;99.90;;;;;;5099972;28;20308;-71
2023/01/21 07:42:22;;;;;;;;;;;-0.70;99.90;;;;;;5099037;28;19947;-72
2023/01/21 07:44:47;;;;;;;;;;;-0.70;99.90;;;;;;5096425;28;19915;-71
2023/01/21 07:47:12;;;;;;;;;;;-0.60;99.90;;;;;;5096682;28;19908;-70
2023/01/21 07:49:39;;;;;;;;;;;-0.50;99.90;;;;;;5096826;28;19908;-70
2023/01/21 07:52:05;;;;;;;;;;;-0.60;99.90;;;;;;5095564;28;19911;-69
2023/01/21 07:54:30;;;;;;;;;;;-0.50;99.90;;;;;;5097036;28;19912;-70
2023/01/21 07:56:56;;;;;;;;;;;-0.50;99.90;;;;;;5092835;28;20320;-67
2023/01/21 07:59:21;;;;;;;;;;;-0.50;99.90;;;;;;5089243;28;20006;-67
2023/01/21 08:01:47;;;;;;;;;;;-0.40;99.90;;;;;;5085375;28;19934;-70
2023/01/21 08:04:12;;;;;;;;;;;-0.50;99.90;;;;;;5096464;28;20003;-70
2023/01/21 08:06:40;;;;;;;;;;;-0.40;99.90;;;;;;5084496;28;20368;-72
2023/01/21 08:09:05;;;;;;;;;;;-0.30;99.90;;;;;;5076042;28;20003;-72
2023/01/21 08:11:31;;;;;;;;;;;-0.30;99.90;;;;;;5082638;28;19959;-71
2023/01/21 08:13:57;;;;;;;;;;;-0.30;99.90;;;;;;5095616;28;19947;-71
2023/01/21 08:16:22;;;;;;;;;;;-0.30;99.90;;;;;;5111704;22;19924;-71
2023/01/21 08:18:48;;;;;;;;;;;-0.20;99.90;;;;;;5074017;28;19912;-69
2023/01/21 08:21:13;;;;;;;;;;;-0.20;99.90;;;;;;5076115;28;19908;-71
2023/01/21 08:23:39;;;;;;;;;;;-0.10;99.90;;;;;;5075945;28;19916;-71
2023/01/21 08:26:05;;;;;;;;;;;-0.10;99.90;;;;;;5075762;28;20363;-71
2023/01/21 08:28:31;;;;;;;;;;;-0.10;99.90;;;;;;5076384;28;19915;-71
2023/01/21 08:31:06;;;;;;;;;;;-0.20;99.90;;;;;;5074841;28;19909;-73
2023/01/21 08:33:32;;;;;;;;;;;-0.10;99.90;;;;;;5075751;28;19909;-72
2023/01/21 08:35:58;;;;;;;;;;;-0.10;99.90;;;;;;5075612;28;19926;-71
2023/01/21 08:38:24;;;;;;;;;;;0.00;99.90;;;;;;5071473;28;19999;-70
2023/01/21 08:40:49;;;;;;;;;;;0.00;99.90;;;;;;5071063;28;19951;-73
2023/01/21 08:43:15;;;;;;;;;;;0.00;99.90;;;;;;5074208;28;19919;-75
2023/01/21 08:45:40;;;;;;;;;;;0.00;99.90;;;;;;5075168;28;19972;-73
2023/01/21 08:48:06;;;;;;;;;;;0.00;99.90;;;;;;5074851;28;20328;-73
2023/01/21 08:50:32;;;;;;;;;;;0.00;99.90;;;;;;5075626;28;19913;-74
2023/01/21 08:52:57;;;;;;;;;;;0.10;99.90;;;;;;5074627;28;20012;-70
2023/01/21 08:55:25;;;;;;;;;;;0.10;99.90;;;;;;5075255;28;19912;-69
2023/01/21 08:57:52;;;;;;;;;;;0.10;99.90;;;;;;5080516;28;19908;-71
2023/01/21 09:00:18;;;;;;;;;;;0.20;99.90;;;;;;5062115;28;20051;-69
2023/01/21 09:02:44;;;;;;;;;;;0.20;99.90;;;;;;5058261;28;19919;-70
2023/01/21 09:05:09;;;;;;;;;;;0.30;99.90;;;;;;5089703;28;20288;-69
2023/01/21 09:07:35;;;;;;;;;;;0.40;99.90;;;;;;5065442;28;20448;-70
2023/01/21 09:10:01;;;;;;;;;;;0.60;99.90;;;;;;5066401;28;19916;-70
2023/01/21 09:12:26;;;;;;;;;;;0.50;99.90;;;;;;5057162;28;19909;-70
2023/01/21 09:14:52;;;;;;;;;;;0.60;99.90;;;;;;5063447;28;19916;-71
2023/01/21 09:17:17;;;;;;;;;;;0.60;99.90;;;;;;5056458;28;20341;-71
2023/01/21 09:19:43;;;;;;;;;;;0.80;99.90;;;;;;5075735;28;19994;-70
2023/01/21 09:22:08;;;;;;;;;;;0.80;99.90;;;;;;5075563;28;19915;-72
2023/01/21 09:24:34;;;;;;;;;;;0.90;99.90;;;;;;5075040;28;19999;-71
2023/01/21 09:26:59;;;;;;;;;;;0.80;99.90;;;;;;5074998;28;20323;-71
2023/01/21 09:29:25;;;;;;;;;;;0.80;99.90;;;;;;5071789;28;20003;-70
2023/01/21 09:31:50;;;;;;;;;;;0.80;99.90;;;;;;5072046;28;19914;-69
2023/01/21 09:34:16;;;;;;;;;;;0.80;99.90;;;;;;5073315;28;19908;-69
2023/01/21 09:36:41;;;;;;;;;;;0.90;99.90;;;;;;5071546;28;19912;-69
2023/01/21 09:39:07;;;;;;;;;;;0.90;99.90;;;;;;5078392;28;20468;-69
2023/01/21 09:41:34;;;;;;;;;;;0.90;99.90;;;;;;5080152;28;20011;-69
2023/01/21 09:44:06;;;;;;;;;;;0.90;99.90;;;;;;5076494;28;19919;-70
2023/01/21 09:46:41;;;;;;;;;;;1.10;99.90;;;;;;5074977;28;19916;-70
2023/01/21 09:49:11;;;;;;;;;;;1.10;99.90;;;;;;5073804;28;19955;-72
2023/01/21 09:51:52;;;;;;;;;;;1.00;99.90;;;;;;5074373;28;19954;-71
2023/01/21 09:54:37;;;;;;;;;;;1.10;99.90;;;;;;5072899;28;20369;-69
2023/01/21 09:57:17;;;;;;;;;;;1.00;99.90;;;;;;5076094;28;20003;-68
2023/01/21 09:59:52;;;;;;;;;;;1.00;99.90;;;;;;5059981;28;19974;-69
2023/01/21 10:02:27;;;;;;;;;;;1.10;99.90;;;;;;5055428;28;19909;-69
2023/01/21 10:05:05;;;;;;;;;;;1.10;99.90;;;;;;5055084;28;20449;-70
2023/01/21 10:07:37;;;;;;;;;;;1.20;99.90;;;;;;5061305;28;19913;-69
2023/01/21 10:10:22;;;;;;;;;;;1.30;99.90;;;;;;5076151;28;19994;-70
2023/01/21 10:13:06;;;;;;;;;;;1.20;99.90;;;;;;5075210;28;19915;-70
2023/01/21 10:15:34;;;;;;;;;;;1.30;99.90;;;;;;5073100;28;20380;-71
2023/01/21 10:18:08;;;;;;;;;;;1.40;99.90;;;;;;5071262;28;20618;-70
2023/01/21 10:20:44;;;;;;;;;;;1.40;99.90;;;;;;5072488;28;19915;-71
2023/01/21 10:23:13;;;;;;;;;;;1.50;99.90;;;;;;5074126;28;19915;-71
2023/01/21 10:25:39;;;;;;;;;;;1.60;99.90;;;;;;5074154;28;19916;-69
2023/01/21 10:28:13;;;;;;;;;;;1.80;99.90;;;;;;5073850;28;19909;-69
2023/01/21 10:30:41;;;;;;;;;;;1.80;99.90;;;;;;5073061;28;19952;-71
2023/01/21 10:33:14;;;;;;;;;;;2.00;99.90;;;;;;5073204;28;19954;-71
2023/01/21 10:35:49;;;;;;;;;;;2.00;99.90;;;;;;5074115;28;19912;-70
2023/01/21 10:38:20;;;;;;;;;;;1.90;99.90;;;;;;5072590;28;19957;-72
2023/01/21 10:40:55;;;;;;;;;;;2.00;99.90;;;;;;5062619;28;19919;-70
2023/01/21 10:43:20;;;;;;;;;;;1.90;99.90;;;;;;5074302;28;19908;-70
2023/01/21 10:45:54;;;;;;;;;;;1.80;99.90;;;;;;5073172;28;20380;-69
2023/01/21 10:48:26;;;;;;;;;;;2.00;99.90;;;;;;5072559;28;19950;-68
2023/01/21 10:51:14;;;;;;;;;;;2.30;99.90;;;;;;5069667;28;20471;-69
2023/01/21 10:53:42;;;;;;;;;;;2.50;99.90;;;;;;5055299;28;20297;-72
2023/01/21 10:56:14;;;;;;;;;;;2.30;99.90;;;;;;5054388;28;19924;-73
2023/01/21 10:58:39;;;;;;;;;;;2.10;99.90;;;;;;5059489;28;20001;-71
2023/01/21 11:01:07;;;;;;;;;;;2.00;99.90;;;;;;5072710;28;19912;-71
2023/01/21 11:03:37;;;;;;;;;;;1.90;99.90;;;;;;5071451;28;20015;-72
2023/01/21 11:06:05;;;;;;;;;;;1.80;99.90;;;;;;5072166;28;19909;-72
2023/01/21 11:08:31;;;;;;;;;;;1.80;99.90;;;;;;5074929;28;19974;-73
2023/01/21 11:10:57;;;;;;;;;;;1.80;99.90;;;;;;5076486;28;19913;-72
2023/01/21 11:13:23;;;;;;;;;;;1.90;99.90;;;;;;5077646;28;19909;-72
2023/01/21 11:15:52;;;;;;;;;;;2.00;99.90;;;;;;5077036;28;20048;-70
2023/01/21 11:18:38;;;;;;;;;;;2.00;99.90;;;;;;5077231;28;19917;-70
2023/01/21 11:21:21;;;;;;;;;;;2.00;99.90;;;;;;5075635;28;19908;-70
2023/01/21 11:23:56;;;;;;;;;;;1.90;99.90;;;;;;5075329;28;21389;-69
2023/01/21 11:26:32;;;;;;;;;;;2.00;99.90;;;;;;5077113;28;19919;-70
2023/01/21 11:29:16;;;;;;;;;;;2.10;99.90;;;;;;5077738;28;19908;-72
2023/01/21 11:31:47;;;;;;;;;;;2.10;99.90;;;;;;5076962;28;19920;-72
2023/01/21 11:34:15;;;;;;;;;;;2.00;99.90;;;;;;5076192;28;19909;-73
2023/01/21 11:36:59;;;;;;;;;;;1.80;99.90;;;;;;5078378;28;20408;-72
2023/01/21 11:39:25;;;;;;;;;;;1.70;99.90;;;;;;5077666;28;20059;-73
2023/01/21 11:41:55;;;;;;;;;;;1.70;99.90;;;;;;5075631;28;20125;-73
2023/01/21 11:44:21;;;;;;;;;;;1.70;99.90;;;;;;5081366;28;20016;-73
2023/01/21 11:46:47;;;;;;;;;;;1.60;99.90;;;;;;5078491;28;20352;-73
2023/01/21 11:49:23;;;;;;;;;;;1.40;99.90;;;;;;5073245;28;19909;-71
2023/01/21 11:51:49;;;;;;;;;;;1.20;99.90;;;;;;5064190;28;19909;-72
2023/01/21 11:54:16;;;;;;;;;;;1.20;99.90;;;;;;5081676;28;19908;-71
2023/01/21 11:56:51;;;;;;;;;;;1.20;99.90;;;;;;5081650;28;20334;-71
2023/01/21 11:59:24;;;;;;;;;;;1.20;99.90;;;;;;5082802;28;20367;-72
2023/01/21 12:01:52;;;;;;;;;;;1.20;99.90;;;;;;5081420;28;20049;-72
2023/01/21 12:04:18;;;;;;;;;;;1.00;99.90;;;;;;5085333;28;19962;-72
2023/01/21 12:06:45;;;;;;;;;;;0.90;99.90;;;;;;5076802;28;20372;-72
2023/01/21 12:09:15;;;;;;;;;;;0.80;99.90;;;;;;5077514;28;19913;-72
2023/01/21 12:11:42;;;;;;;;;;;0.90;99.90;;;;;;5076681;28;19909;-72
2023/01/21 12:14:18;;;;;;;;;;;1.10;99.90;;;;;;5076285;28;19915;-71
2023/01/21 12:16:44;;;;;;;;;;;1.20;99.90;;;;;;5074711;28;19917;-68
2023/01/21 12:19:15;;;;;;;;;;;1.20;99.90;;;;;;5073408;28;19995;-70
2023/01/21 12:21:58;;;;;;;;;;;1.30;99.90;;;;;;5075049;28;20381;-71
2023/01/21 12:24:42;;;;;;;;;;;1.20;99.90;;;;;;5068258;28;19931;-71
2023/01/21 12:27:08;;;;;;;;;;;1.30;99.90;;;;;;5079920;28;19915;-72
2023/01/21 12:29:49;;;;;;;;;;;1.20;99.90;;;;;;5075393;28;19927;-72
2023/01/21 12:32:20;;;;;;;;;;;1.20;99.90;;;;;;5076089;28;19909;-73
2023/01/21 12:34:46;;;;;;;;;;;1.20;99.90;;;;;;5074658;28;19947;-70
2023/01/21 12:37:15;;;;;;;;;;;1.20;99.90;;;;;;5073915;28;20286;-71
2023/01/21 12:39:41;;;;;;;;;;;1.10;99.90;;;;;;5070512;28;19958;-70
2023/01/21 12:42:10;;;;;;;;;;;1.10;99.90;;;;;;5066908;28;19928;-67
2023/01/21 12:44:38;;;;;;;;;;;1.20;99.90;;;;;;5069644;28;20391;-68
2023/01/21 12:47:26;;;;;;;;;;;1.10;99.90;;;;;;5074376;28;19909;-69
2023/01/21 12:49:51;;;;;;;;;;;1.10;99.90;;;;;;5071317;28;20143;-69
2023/01/21 12:52:36;;;;;;;;;;;1.20;99.90;;;;;;5052409;28;19967;-69
2023/01/21 12:55:17;;;;;;;;;;;1.10;99.90;;;;;;5054869;28;19935;-70
2023/01/21 12:57:49;;;;;;;;;;;1.20;99.90;;;;;;5070176;28;19916;-69
2023/01/21 13:00:21;;;;;;;;;;;1.10;99.90;;;;;;5054544;28;19954;-69
2023/01/21 13:03:05;;;;;;;;;;;1.20;99.90;;;;;;5054902;28;19909;-69
2023/01/21 13:05:43;;;;;;;;;;;1.20;99.90;;;;;;5071404;28;19960;-70
2023/01/21 13:08:19;;;;;;;;;;;1.20;99.90;;;;;;5055357;28;19909;-69
2023/01/21 13:10:47;;;;;;;;;;;1.20;99.90;;;;;;5054796;28;19915;-69
2023/01/21 13:13:16;;;;;;;;;;;1.20;99.90;;;;;;5054875;28;20369;-69
2023/01/21 13:15:43;;;;;;;;;;;1.20;99.90;;;;;;5053796;28;20319;-70
2023/01/21 13:18:15;;;;;;;;;;;1.20;99.90;;;;;;5055066;28;20345;-69
2023/01/21 13:20:42;;;;;;;;;;;1.20;99.90;;;;;;5062739;28;19909;-69
2023/01/21 13:23:08;;;;;;;;;;;1.10;99.90;;;;;;5074894;28;20046;-69
2023/01/21 13:25:54;;;;;;;;;;;1.10;99.90;;;;;;5074555;28;20346;-69
2023/01/21 13:28:25;;;;;;;;;;;1.20;99.90;;;;;;5075077;28;20361;-70
2023/01/21 13:30:51;;;;;;;;;;;1.10;99.90;;;;;;5074683;28;19908;-69
2023/01/21 13:33:22;;;;;;;;;;;1.20;99.90;;;;;;5074110;28;19915;-69
2023/01/21 13:35:50;;;;;;;;;;;1.10;99.90;;;;;;5074864;28;19912;-69
2023/01/21 13:38:26;;;;;;;;;;;1.10;99.90;;;;;;5074248;28;20314;-69
2023/01/21 13:40:55;;;;;;;;;;;1.00;99.90;;;;;;5074236;28;19908;-69
2023/01/21 13:43:21;;;;;;;;;;;1.00;99.90;;;;;;5074550;28;19909;-69
2023/01/21 13:45:46;;;;;;;;;;;1.10;99.90;;;;;;5072933;28;19934;-69
2023/01/21 13:48:12;;;;;;;;;;;1.20;99.90;;;;;;5074395;28;19908;-69
2023/01/21 13:50:45;;;;;;;;;;;1.30;99.90;;;;;;5074001;28;19912;-69
2023/01/21 13:53:16;;;;;;;;;;;1.30;99.90;;;;;;5075205;28;20250;-68
2023/01/21 13:55:53;;;;;;;;;;;1.40;99.90;;;;;;5073970;28;19920;-68
2023/01/21 13:58:24;;;;;;;;;;;1.30;99.90;;;;;;5072754;28;19908;-68
2023/01/21 14:00:54;;;;;;;;;;;1.40;99.90;;;;;;5072776;28;19908;-69
2023/01/21 14:03:30;;;;;;;;;;;1.30;99.90;;;;;;5074073;28;19920;-68
2023/01/21 14:06:02;;;;;;;;;;;1.40;99.90;;;;;;5074339;28;19951;-68
2023/01/21 14:08:39;;;;;;;;;;;1.30;99.90;;;;;;5074464;28;20022;-69
2023/01/21 14:11:10;;;;;;;;;;;1.30;99.90;;;;;;5073935;28;20376;-69
2023/01/21 14:13:35;;;;;;;;;;;1.30;99.90;;;;;;5075068;28;20008;-68
2023/01/21 14:16:13;;;;;;;;;;;1.30;99.90;;;;;;5074647;28;19974;-69
2023/01/21 14:18:41;;;;;;;;;;;1.30;99.90;;;;;;5111663;22;20311;-71
2023/01/21 14:21:07;;;;;;;;;;;1.20;99.90;;;;;;5094194;28;19912;-71
2023/01/21 14:23:42;;;;;;;;;;;1.30;99.90;;;;;;5095573;28;20253;-70
2023/01/21 14:26:17;;;;;;;;;;;1.40;99.90;;;;;;5096848;28;19908;-70
2023/01/21 14:29:01;;;;;;;;;;;1.40;99.90;;;;;;5094722;28;20265;-72
2023/01/21 14:31:31;;;;;;;;;;;1.30;99.90;;;;;;5095777;28;19908;-71
2023/01/21 14:34:03;;;;;;;;;;;1.20;99.90;;;;;;5093896;28;20271;-71
2023/01/21 14:36:37;;;;;;;;;;;1.20;99.90;;;;;;5080477;28;19917;-72
2023/01/21 14:39:17;;;;;;;;;;;1.20;99.90;;;;;;5075582;28;19963;-72